Etusivu
METAR-TAF:

METAR-TAF

Lentoasemat :

Isedor Iverson Airport

McGregor, Minnesota, Yhdysvallat

Leveyspiiri: 46-37-07N, Pituuspiiri: 093-18-35W, korkeus merenpinnasta: 374 m

Tämänhetkinen sää

Tämä raportti tehtiin 31 minuuttia sitten, kello 16.56 UTC
Tuuli 6 kn luoteesta
Lämpötila 6°C
Kosteus 75%
Ilmanpaine 1019 hPa
Näkyvyys: 16.1 km
Pilvistä 1800 ft:n korkeudessa

METAR: KHZX 161656Z AUTO 32006KT 10SM OVC018 06/02 A3010 RMK AO2

Aika: 12:27 (17:27 UTC)


TAF: puuttuu

Säähavainnot ja -ennusteet yli 4000 lentoasemalta (METAR- ja TAF-raportit).

Käytössä olevat sääasemat on merkitty karttaan keltaisilla ja punaisilla pisteillä.

Aseta hiiri pisteen päälle nähdäksesi sääaseman nimen.

Klikkaa sitten nähdäksesi säähavainnot ja -ennusteet.

Kartan vaihtaminen: klikkaa mustalla rastilla varustettuja vihreitä pisteitä, niin voit zoomata sisään; viivalla varustettua vihreää pistettä, niin voit zoomata ulos tai vihreitä nuolia, niin pääset viereisille kartoille.


METAR-TAF: